Kilgore, Idaho
Current Conditions -  °F | °C
As of 3:53 AM on Tuesday 21 Oct 2014 (Local Time) from KRXE Reporting Station
Light Rain Light Rain  
Wind Chill: 48°   Ceiling: 8500
Heat Index: 48°   Visibility: 10mi
Dew Point: 38°   Wind: 0mph
Humidity: 68%   Direction: NA
Pressure: 29.84"   Gusts: NA
Location:  44.2396°N, 112.579°W
Report Text: KRXE 210953Z AUTO 00000KT 10SM -RA FEW042 BKN085 09/03 A2984 RMK AO2 RAB31 SLP075 P0000 T00890033
Loading
Personal Weather Stations






























Interactive Weather Map
Tropical Storm Tracking
New forecast layout! Learn more

10-Day Weather Forecast

Advertisements
Track Severe Weather on mobile